Time;durP1;ratioP1;P1;durP2;ratioP2;P2;SDS_P1;SDS_P2;PMS_P1;PMS_P2;Temp;Humidity;BMP_temperature;BMP_pressure;BME280_temperature;BME280_humidity;BME280_pressure;Samples;Min_cycle;Max_cycle;Signal;HPM_P1;HPM_P2
2022/03/16 00:00:14;;;;;;;25.05;20.45;;;;;;;;;;4935932;28;95667;-73
2022/03/16 00:02:47;;;;;;;27.92;21.27;;;;;;;;;;4936694;28;92367;-73
2022/03/16 00:05:14;;;;;;;27.38;21.42;;;;;;;;;;4937463;28;93274;-73
2022/03/16 00:07:41;;;;;;;31.55;23.83;;;;;;;;;;4937423;28;93898;-73
2022/03/16 00:10:08;;;;;;;30.88;22.27;;;;;;;;;;4937305;28;92550;-74
2022/03/16 00:12:38;;;;;;;37.20;24.65;;;;;;;;;;4936661;28;93473;-73
2022/03/16 00:15:05;;;;;;;31.83;23.52;;;;;;;;;;4937331;28;93827;-72
2022/03/16 00:17:32;;;;;;;36.78;22.30;;;;;;;;;;4940726;28;91596;-73
2022/03/16 00:19:58;;;;;;;29.30;23.48;;;;;;;;;;4937179;28;93689;-73
2022/03/16 00:22:25;;;;;;;31.80;22.45;;;;;;;;;;4937239;28;92397;-74
2022/03/16 00:24:51;;;;;;;29.08;22.33;;;;;;;;;;4934251;28;95853;-74
2022/03/16 00:27:17;;;;;;;28.52;21.75;;;;;;;;;;4937072;28;93986;-73
2022/03/16 00:29:44;;;;;;;26.98;21.13;;;;;;;;;;4937388;28;92354;-73
2022/03/16 00:32:13;;;;;;;29.92;21.48;;;;;;;;;;4939686;28;95438;-73
2022/03/16 00:34:39;;;;;;;26.55;20.58;;;;;;;;;;4939288;28;94216;-73
2022/03/16 00:37:06;;;;;;;27.25;21.48;;;;;;;;;;4942486;28;94102;-74
2022/03/16 00:39:32;;;;;;;31.27;23.65;;;;;;;;;;4939172;28;96439;-73
2022/03/16 00:41:59;;;;;;;37.13;23.33;;;;;;;;;;4940223;28;91624;-73
2022/03/16 00:44:27;;;;;;;32.20;24.02;;;;;;;;;;4939583;28;93765;-72
2022/03/16 00:46:54;;;;;;;30.98;22.48;;;;;;;;;;4939059;28;96382;-72
2022/03/16 00:49:23;;;;;;;26.40;20.92;;;;;;;;;;4937479;28;94801;-73
2022/03/16 00:51:49;;;;;;;30.83;21.05;;;;;;;;;;4938853;28;97741;-72
2022/03/16 00:54:16;;;;;;;26.13;20.33;;;;;;;;;;4938839;28;96382;-73
2022/03/16 00:56:42;;;;;;;23.58;19.75;;;;;;;;;;4939162;28;93037;-72
2022/03/16 00:59:08;;;;;;;26.23;19.45;;;;;;;;;;4942028;28;94422;-72
2022/03/16 01:01:36;;;;;;;26.90;20.70;;;;;;;;;;4940334;28;92268;-72
2022/03/16 01:04:02;;;;;;;26.42;19.35;;;;;;;;;;4940536;28;92959;-72
2022/03/16 01:06:29;;;;;;;23.02;18.27;;;;;;;;;;4940355;28;91659;-73
2022/03/16 01:08:55;;;;;;;22.58;18.15;;;;;;;;;;4940285;28;92585;-73
2022/03/16 01:11:22;;;;;;;26.90;18.20;;;;;;;;;;4940418;28;93803;-73
2022/03/16 01:13:49;;;;;;;28.95;18.33;;;;;;;;;;4937143;28;96563;-72
2022/03/16 01:16:15;;;;;;;24.55;18.88;;;;;;;;;;4937687;28;92405;-74
2022/03/16 01:18:42;;;;;;;24.83;18.60;;;;;;;;;;4938207;28;93389;-74
2022/03/16 01:21:09;;;;;;;27.67;18.70;;;;;;;;;;4940560;28;93614;-73
2022/03/16 01:23:36;;;;;;;24.23;19.20;;;;;;;;;;4921732;28;96556;-71
2022/03/16 01:26:05;;;;;;;24.33;19.05;;;;;;;;;;4937628;28;94250;-73
2022/03/16 01:28:32;;;;;;;24.60;17.92;;;;;;;;;;4938162;28;92422;-73
2022/03/16 01:31:01;;;;;;;29.50;19.95;;;;;;;;;;4922019;28;95966;-73
2022/03/16 01:33:28;;;;;;;20.20;17.40;;;;;;;;;;4899959;28;93827;-74
2022/03/16 01:35:54;;;;;;;26.23;19.23;;;;;;;;;;4889832;28;92234;-73
2022/03/16 01:38:20;;;;;;;30.40;19.42;;;;;;;;;;4897778;28;94748;-73
2022/03/16 01:40:47;;;;;;;28.60;18.88;;;;;;;;;;4898804;28;93415;-74
2022/03/16 01:43:13;;;;;;;25.90;18.73;;;;;;;;;;4901851;28;92434;-74
2022/03/16 01:45:47;;;;;;;25.75;18.77;;;;;;;;;;4899025;28;95782;-74
2022/03/16 01:48:14;;;;;;;26.75;19.00;;;;;;;;;;4915069;28;92430;-74
2022/03/16 01:50:43;;;;;;;30.60;19.83;;;;;;;;;;4918032;28;93837;-74
2022/03/16 01:53:11;;;;;;;23.25;19.27;;;;;;;;;;4918114;28;94302;-74
2022/03/16 01:55:39;;;;;;;25.85;19.35;;;;;;;;;;4918587;28;91625;-74
2022/03/16 01:58:05;;;;;;;25.45;18.48;;;;;;;;;;4918049;28;94147;-74
2022/03/16 02:00:32;;;;;;;23.40;19.42;;;;;;;;;;4918192;28;96013;-75
2022/03/16 02:02:58;;;;;;;27.65;19.13;;;;;;;;;;4916306;28;94918;-74
2022/03/16 02:05:26;;;;;;;21.45;18.17;;;;;;;;;;4951380;28;96699;-73
2022/03/16 02:07:53;;;;;;;24.67;18.40;;;;;;;;;;4939271;28;92376;-72
2022/03/16 02:10:20;;;;;;;23.48;18.58;;;;;;;;;;4939301;28;93423;-74
2022/03/16 02:12:49;;;;;;;22.88;18.73;;;;;;;;;;4939177;28;93082;-74
2022/03/16 02:15:16;;;;;;;26.00;19.00;;;;;;;;;;4939128;28;92368;-74
2022/03/16 02:17:42;;;;;;;23.00;18.20;;;;;;;;;;4939227;28;93559;-74
2022/03/16 02:20:09;;;;;;;24.73;18.40;;;;;;;;;;4939674;28;93049;-74
2022/03/16 02:22:36;;;;;;;26.77;19.13;;;;;;;;;;4939188;28;92325;-74
2022/03/16 02:25:04;;;;;;;26.13;20.00;;;;;;;;;;4941942;28;93720;-74
2022/03/16 02:27:30;;;;;;;25.63;19.73;;;;;;;;;;4937544;28;94676;-72
2022/03/16 02:29:56;;;;;;;25.50;20.50;;;;;;;;;;4939392;28;95286;-73
2022/03/16 02:32:23;;;;;;;27.05;22.25;;;;;;;;;;4938808;28;93514;-72
2022/03/16 02:34:50;;;;;;;28.63;22.23;;;;;;;;;;4939147;28;92281;-74
2022/03/16 02:37:16;;;;;;;27.10;21.30;;;;;;;;;;4939072;28;92791;-73
2022/03/16 02:39:43;;;;;;;29.55;21.63;;;;;;;;;;4938747;28;93108;-74
2022/03/16 02:42:09;;;;;;;29.50;21.60;;;;;;;;;;4938703;28;92269;-73
2022/03/16 02:44:36;;;;;;;29.88;20.98;;;;;;;;;;4938729;28;92624;-73
2022/03/16 02:47:07;;;;;;;27.92;21.45;;;;;;;;;;4941725;28;92984;-72
2022/03/16 02:49:34;;;;;;;35.75;22.70;;;;;;;;;;4938347;28;94330;-72
2022/03/16 02:52:10;;;;;;;28.00;22.77;;;;;;;;;;4935590;28;98540;-74
2022/03/16 02:54:41;;;;;;;33.30;22.52;;;;;;;;;;4941991;28;92511;-73
2022/03/16 02:57:08;;;;;;;28.08;22.13;;;;;;;;;;4940865;28;93585;-72
2022/03/16 02:59:35;;;;;;;30.25;23.02;;;;;;;;;;4942832;28;92826;-73
2022/03/16 03:02:01;;;;;;;32.47;22.98;;;;;;;;;;4940953;28;92142;-73
2022/03/16 03:04:28;;;;;;;29.40;21.55;;;;;;;;;;4942647;28;93506;-72
2022/03/16 03:06:55;;;;;;;28.20;22.20;;;;;;;;;;4942039;28;93767;-72
2022/03/16 03:09:21;;;;;;;28.50;22.48;;;;;;;;;;4942513;28;91514;-73
2022/03/16 03:11:48;;;;;;;32.85;23.08;;;;;;;;;;4938603;28;93705;-73
2022/03/16 03:14:14;;;;;;;28.35;22.08;;;;;;;;;;4938942;28;92290;-73
2022/03/16 03:16:40;;;;;;;28.80;22.77;;;;;;;;;;4936951;28;94777;-74
2022/03/16 03:19:07;;;;;;;26.65;21.65;;;;;;;;;;4938225;28;92888;-73
2022/03/16 03:21:34;;;;;;;27.00;21.88;;;;;;;;;;4937864;28;92225;-74
2022/03/16 03:24:00;;;;;;;28.00;20.67;;;;;;;;;;4938220;28;93021;-75
2022/03/16 03:26:32;;;;;;;;;;;;;;;;;;4938712;28;94845;-75
2022/03/16 03:28:58;;;;;;;29.15;20.38;;;;;;;;;;4937936;28;119400;-74
2022/03/16 03:31:25;;;;;;;26.10;20.27;;;;;;;;;;4941209;28;93650;-74
2022/03/16 03:33:51;;;;;;;30.80;21.80;;;;;;;;;;4938643;28;91558;-74
2022/03/16 03:36:18;;;;;;;27.98;21.45;;;;;;;;;;4937188;28;92959;-73
2022/03/16 03:38:44;;;;;;;29.15;20.92;;;;;;;;;;4937886;28;93921;-75
2022/03/16 03:41:10;;;;;;;23.58;20.83;;;;;;;;;;4935992;28;94671;-73
2022/03/16 03:43:37;;;;;;;27.08;20.48;;;;;;;;;;4938312;28;95979;-74
2022/03/16 03:46:08;;;;;;;28.35;20.88;;;;;;;;;;4940930;28;93001;-74
2022/03/16 03:48:34;;;;;;;26.70;20.45;;;;;;;;;;4939161;28;92447;-74
2022/03/16 03:51:01;;;;;;;31.65;21.67;;;;;;;;;;4937935;28;92935;-74
2022/03/16 03:53:27;;;;;;;29.48;21.50;;;;;;;;;;4940360;28;93901;-74
2022/03/16 03:55:54;;;;;;;30.33;21.45;;;;;;;;;;4938017;28;93421;-74
2022/03/16 03:58:20;;;;;;;26.92;20.58;;;;;;;;;;4938192;28;92558;-74
2022/03/16 04:00:46;;;;;;;28.88;21.58;;;;;;;;;;4937687;28;92299;-74
2022/03/16 04:03:13;;;;;;;30.73;22.15;;;;;;;;;;4937644;28;93213;-73
2022/03/16 04:05:39;;;;;;;27.95;20.73;;;;;;;;;;4935052;28;95981;-73
2022/03/16 04:08:06;;;;;;;30.90;21.50;;;;;;;;;;4937106;28;92302;-73
2022/03/16 04:10:32;;;;;;;30.83;21.38;;;;;;;;;;4937726;28;92527;-73
2022/03/16 04:12:58;;;;;;;33.13;22.20;;;;;;;;;;4937493;28;93182;-74
2022/03/16 04:15:25;;;;;;;32.05;22.30;;;;;;;;;;4940692;28;92336;-73
2022/03/16 04:17:51;;;;;;;29.63;21.30;;;;;;;;;;4937324;28;93070;-74
2022/03/16 04:20:18;;;;;;;34.70;23.08;;;;;;;;;;4937266;28;92299;-73
2022/03/16 04:22:44;;;;;;;32.90;23.08;;;;;;;;;;4937421;28;92976;-74
2022/03/16 04:25:10;;;;;;;31.83;21.90;;;;;;;;;;4937344;28;93629;-73
2022/03/16 04:27:37;;;;;;;34.83;24.13;;;;;;;;;;4937358;28;92225;-74
2022/03/16 04:30:04;;;;;;;35.47;23.52;;;;;;;;;;4935706;28;94818;-73
2022/03/16 04:32:30;;;;;;;45.17;27.20;;;;;;;;;;4937204;28;93138;-73
2022/03/16 04:34:56;;;;;;;48.35;28.30;;;;;;;;;;4940329;28;92308;-73
2022/03/16 04:37:23;;;;;;;42.97;27.73;;;;;;;;;;4937051;28;93618;-74
2022/03/16 04:39:49;;;;;;;54.35;31.52;;;;;;;;;;4937333;28;92177;-73
2022/03/16 04:42:16;;;;;;;53.63;30.30;;;;;;;;;;4936819;28;93715;-73
2022/03/16 04:44:42;;;;;;;49.78;31.52;;;;;;;;;;4937013;28;93278;-74
2022/03/16 04:47:08;;;;;;;54.40;31.00;;;;;;;;;;4937490;28;91587;-75
2022/03/16 04:49:35;;;;;;;55.60;32.42;;;;;;;;;;4936789;28;92886;-73
2022/03/16 04:52:01;;;;;;;58.20;33.65;;;;;;;;;;4936624;28;93771;-74
2022/03/16 04:54:28;;;;;;;56.20;32.90;;;;;;;;;;4934466;28;94788;-74
2022/03/16 04:56:56;;;;;;;58.65;34.33;;;;;;;;;;4940017;28;95363;-73
2022/03/16 04:59:22;;;;;;;58.38;34.75;;;;;;;;;;4936464;28;92994;-73
2022/03/16 05:01:49;;;;;;;59.95;35.58;;;;;;;;;;4935999;28;93829;-73
2022/03/16 05:04:15;;;;;;;58.50;33.67;;;;;;;;;;4935511;28;94618;-73
2022/03/16 05:06:42;;;;;;;66.80;36.45;;;;;;;;;;4936562;28;92463;-74
2022/03/16 05:09:08;;;;;;;73.55;37.80;;;;;;;;;;4936645;28;92879;-73
2022/03/16 05:11:35;;;;;;;73.55;38.72;;;;;;;;;;4937138;28;92627;-73
2022/03/16 05:14:02;;;;;;;69.53;37.50;;;;;;;;;;4936777;28;92291;-74
2022/03/16 05:16:28;;;;;;;64.90;35.35;;;;;;;;;;4938670;28;93064;-74
2022/03/16 05:18:55;;;;;;;62.22;36.10;;;;;;;;;;4941006;28;96227;-73
2022/03/16 05:21:21;;;;;;;65.63;38.22;;;;;;;;;;4939982;28;95432;-72
2022/03/16 05:23:48;;;;;;;66.50;38.28;;;;;;;;;;4940094;28;93327;-74
2022/03/16 05:26:14;;;;;;;69.85;37.92;;;;;;;;;;4940029;28;92279;-73
2022/03/16 05:28:40;;;;;;;71.25;37.72;;;;;;;;;;4939907;28;92585;-74
2022/03/16 05:31:07;;;;;;;71.10;38.60;;;;;;;;;;4970939;28;96087;-73
2022/03/16 05:33:38;;;;;;;69.40;38.67;;;;;;;;;;4939650;28;92352;-74
2022/03/16 05:36:05;;;;;;;68.70;39.20;;;;;;;;;;4940235;28;93699;-73
2022/03/16 05:38:31;;;;;;;74.03;40.15;;;;;;;;;;4939654;28;93665;-74
2022/03/16 05:40:57;;;;;;;73.97;39.03;;;;;;;;;;4942851;28;92408;-74
2022/03/16 05:43:24;;;;;;;71.60;40.17;;;;;;;;;;4937820;28;97189;-73
2022/03/16 05:45:50;;;;;;;74.35;39.38;;;;;;;;;;4939566;28;92178;-73
2022/03/16 05:48:18;;;;;;;81.20;42.67;;;;;;;;;;4939046;28;93382;-74
2022/03/16 05:50:45;;;;;;;83.32;41.20;;;;;;;;;;4939783;28;93533;-73
2022/03/16 05:53:13;;;;;;;94.57;44.35;;;;;;;;;;4940508;28;92192;-74
2022/03/16 05:55:39;;;;;;;84.13;44.38;;;;;;;;;;4940815;28;93920;-73
2022/03/16 05:58:06;;;;;;;88.82;46.20;;;;;;;;;;4939220;28;93443;-74
2022/03/16 06:00:32;;;;;;;94.40;46.83;;;;;;;;;;4939014;28;91677;-73
2022/03/16 06:02:59;;;;;;;85.53;43.35;;;;;;;;;;4942338;28;92674;-72
2022/03/16 06:05:25;;;;;;;85.60;45.22;;;;;;;;;;4939500;28;92238;-72
2022/03/16 06:07:53;;;;;;;84.88;43.97;;;;;;;;;;4937636;28;95514;-74
2022/03/16 06:10:19;;;;;;;88.93;44.05;;;;;;;;;;4939168;28;93019;-74
2022/03/16 06:12:52;;;;;;;82.80;43.58;;;;;;;;;;4939360;28;92471;-73
2022/03/16 06:15:19;;;;;;;80.07;41.75;;;;;;;;;;4938833;28;93500;-73
2022/03/16 06:17:45;;;;;;;76.00;41.03;;;;;;;;;;4939049;28;93806;-73
2022/03/16 06:20:12;;;;;;;77.03;41.45;;;;;;;;;;4939361;28;92279;-74
2022/03/16 06:22:38;;;;;;;70.43;40.00;;;;;;;;;;4939278;28;93508;-74
2022/03/16 06:25:05;;;;;;;73.70;40.15;;;;;;;;;;4973653;28;94475;-72
2022/03/16 06:27:31;;;;;;;74.25;41.17;;;;;;;;;;4938107;28;92850;-73
2022/03/16 06:29:57;;;;;;;76.75;40.33;;;;;;;;;;4938368;28;93554;-73
2022/03/16 06:32:24;;;;;;;71.05;41.33;;;;;;;;;;4936337;28;94880;-72
2022/03/16 06:34:50;;;;;;;69.93;38.55;;;;;;;;;;4938678;28;95161;-74
2022/03/16 06:37:17;;;;;;;78.10;40.30;;;;;;;;;;4970156;28;94033;-73
2022/03/16 06:39:43;;;;;;;66.13;38.40;;;;;;;;;;4938599;28;92275;-73
2022/03/16 06:42:09;;;;;;;69.03;37.63;;;;;;;;;;4938751;28;93654;-74
2022/03/16 06:44:35;;;;;;;67.15;39.38;;;;;;;;;;4941220;28;93969;-73
2022/03/16 06:47:02;;;;;;;67.72;38.55;;;;;;;;;;4938726;28;93598;-74
2022/03/16 06:49:28;;;;;;;67.65;40.17;;;;;;;;;;4937123;28;93196;-74
2022/03/16 06:51:55;;;;;;;55.63;35.00;;;;;;;;;;4938636;28;92253;-74
2022/03/16 06:54:21;;;;;;;52.42;33.42;;;;;;;;;;4938351;28;93795;-73
2022/03/16 06:56:48;;;;;;;48.88;32.55;;;;;;;;;;4934292;28;95790;-74
2022/03/16 06:59:14;;;;;;;51.47;32.33;;;;;;;;;;4937327;28;92527;-73
2022/03/16 07:01:46;;;;;;;48.08;30.40;;;;;;;;;;4938540;28;93289;-72
2022/03/16 07:04:12;;;;;;;42.58;29.35;;;;;;;;;;4938306;28;93620;-73
2022/03/16 07:06:39;;;;;;;48.30;30.17;;;;;;;;;;4941201;28;92414;-72
2022/03/16 07:09:05;;;;;;;40.83;28.77;;;;;;;;;;4937966;28;93630;-70
2022/03/16 07:11:32;;;;;;;43.40;29.73;;;;;;;;;;4937944;28;92814;-71
2022/03/16 07:16:43;;;;;;;37.90;28.13;;;;;;;;;;4938366;28;93467;-72
2022/03/16 07:19:10;;;;;;;40.42;29.08;;;;;;;;;;4953480;28;92360;-71
2022/03/16 07:21:37;;;;;;;44.95;28.92;;;;;;;;;;4937069;28;94774;-71
2022/03/16 07:24:04;;;;;;;43.85;29.02;;;;;;;;;;4937711;28;93899;-71
2022/03/16 07:26:31;;;;;;;46.20;29.50;;;;;;;;;;4937838;28;92176;-70
2022/03/16 07:28:58;;;;;;;39.17;29.27;;;;;;;;;;4940942;28;93322;-71
2022/03/16 07:31:25;;;;;;;39.72;28.38;;;;;;;;;;4937877;28;93027;-71
2022/03/16 07:33:51;;;;;;;37.83;27.60;;;;;;;;;;4936923;28;94557;-74
2022/03/16 07:36:17;;;;;;;38.58;26.55;;;;;;;;;;4936677;28;94788;-71
2022/03/16 07:38:45;;;;;;;39.78;27.33;;;;;;;;;;4937816;28;91638;-72
2022/03/16 07:41:11;;;;;;;35.45;26.33;;;;;;;;;;4938084;28;92899;-73
2022/03/16 07:43:37;;;;;;;37.85;25.58;;;;;;;;;;4936222;28;95344;-72
2022/03/16 07:46:04;;;;;;;32.78;24.25;;;;;;;;;;4936402;28;94638;-72
2022/03/16 07:48:30;;;;;;;33.45;24.90;;;;;;;;;;4937334;28;94206;-73
2022/03/16 07:50:57;;;;;;;35.15;24.75;;;;;;;;;;4940430;28;94445;-72
2022/03/16 07:53:23;;;;;;;36.72;24.30;;;;;;;;;;4937292;28;93553;-73
2022/03/16 07:55:51;;;;;;;30.48;22.35;;;;;;;;;;4937540;28;93700;-73
2022/03/16 07:58:18;;;;;;;31.05;23.23;;;;;;;;;;4937702;28;92403;-72
2022/03/16 08:00:50;;;;;;;29.40;20.98;;;;;;;;;;4936561;28;95927;-74
2022/03/16 08:03:17;;;;;;;29.27;20.73;;;;;;;;;;4938094;28;93539;-74
2022/03/16 08:05:47;;;;;;;28.95;20.48;;;;;;;;;;4936737;28;92296;-72
2022/03/16 08:08:14;;;;;;;27.23;20.17;;;;;;;;;;4937552;28;92985;-71
2022/03/16 08:10:40;;;;;;;24.88;19.38;;;;;;;;;;4935609;28;96031;-74
2022/03/16 08:13:06;;;;;;;26.55;18.60;;;;;;;;;;4940613;28;93900;-74
2022/03/16 08:15:33;;;;;;;28.75;19.52;;;;;;;;;;4936442;28;93758;-73
2022/03/16 08:17:59;;;;;;;19.98;16.80;;;;;;;;;;4937432;28;92298;-74
2022/03/16 08:20:26;;;;;;;28.60;17.02;;;;;;;;;;4937066;28;93475;-73
2022/03/16 08:22:56;;;;;;;21.35;16.88;;;;;;;;;;4942265;28;93473;-73
2022/03/16 08:25:42;;;;;;;18.98;16.48;;;;;;;;;;4938366;28;92247;-73
2022/03/16 08:28:09;;;;;;;20.55;16.08;;;;;;;;;;4941332;28;93343;-75
2022/03/16 08:30:35;;;;;;;20.90;15.27;;;;;;;;;;4941759;28;92655;-73
2022/03/16 08:33:02;;;;;;;18.88;15.18;;;;;;;;;;4942602;28;92488;-74
2022/03/16 08:35:28;;;;;;;23.38;15.30;;;;;;;;;;4945899;28;94701;-74
2022/03/16 08:37:55;;;;;;;19.90;13.32;;;;;;;;;;4941456;28;92358;-75
2022/03/16 08:40:21;;;;;;;19.98;13.55;;;;;;;;;;4940661;28;93020;-74
2022/03/16 08:42:48;;;;;;;16.58;12.60;;;;;;;;;;4938967;28;93218;-72
2022/03/16 08:45:14;;;;;;;16.42;12.65;;;;;;;;;;4937337;28;92294;-74
2022/03/16 08:47:41;;;;;;;13.48;11.90;;;;;;;;;;4936604;28;94264;-76
2022/03/16 08:50:07;;;;;;;14.10;11.88;;;;;;;;;;4936960;28;93649;-74
2022/03/16 08:52:34;;;;;;;23.35;11.82;;;;;;;;;;4944558;28;91610;-77
2022/03/16 08:55:00;;;;;;;14.02;11.65;;;;;;;;;;4945157;28;92802;-72
2022/03/16 08:57:29;;;;;;;17.27;12.23;;;;;;;;;;4940165;28;92454;-74
2022/03/16 08:59:56;;;;;;;12.93;10.90;;;;;;;;;;4940884;28;94722;-74
2022/03/16 09:02:22;;;;;;;13.13;11.68;;;;;;;;;;4939234;28;93134;-74
2022/03/16 09:04:50;;;;;;;20.55;12.20;;;;;;;;;;4939896;28;92257;-73
2022/03/16 09:07:17;;;;;;;13.68;11.30;;;;;;;;;;4935825;28;93844;-73
2022/03/16 09:09:43;;;;;;;13.95;11.48;;;;;;;;;;4939590;28;93724;-72
2022/03/16 09:12:11;;;;;;;13.55;11.90;;;;;;;;;;4939608;28;92352;-72
2022/03/16 09:14:38;;;;;;;18.88;12.88;;;;;;;;;;4938961;28;94253;-74
2022/03/16 09:17:05;;;;;;;15.40;12.93;;;;;;;;;;4943026;28;93005;-72
2022/03/16 09:19:33;;;;;;;20.02;13.50;;;;;;;;;;4938756;28;94183;-72
2022/03/16 09:22:00;;;;;;;24.00;13.52;;;;;;;;;;4940075;28;93483;-73
2022/03/16 09:24:26;;;;;;;17.50;13.18;;;;;;;;;;4938269;28;95328;-74
2022/03/16 09:26:59;;;;;;;18.48;12.25;;;;;;;;;;4940031;28;95930;-73
2022/03/16 09:29:28;;;;;;;16.33;12.85;;;;;;;;;;4939760;28;93977;-73
2022/03/16 09:32:00;;;;;;;18.92;13.65;;;;;;;;;;4939420;28;92463;-73
2022/03/16 09:34:27;;;;;;;14.98;13.00;;;;;;;;;;4938350;28;95733;-73
2022/03/16 09:36:54;;;;;;;16.35;12.98;;;;;;;;;;4939354;28;93270;-72
2022/03/16 09:39:21;;;;;;;24.33;13.45;;;;;;;;;;4942167;28;92155;-73
2022/03/16 09:41:47;;;;;;;21.88;13.32;;;;;;;;;;4942381;28;93237;-71
2022/03/16 09:44:14;;;;;;;29.98;13.15;;;;;;;;;;4939022;28;92426;-69
2022/03/16 09:46:42;;;;;;;17.48;13.00;;;;;;;;;;4939171;28;93352;-73
2022/03/16 09:49:08;;;;;;;16.48;12.48;;;;;;;;;;4937047;28;95382;-69
2022/03/16 09:51:36;;;;;;;16.52;13.18;;;;;;;;;;4942293;28;92356;-72
2022/03/16 09:54:03;;;;;;;14.32;12.82;;;;;;;;;;4937881;28;94365;-74
2022/03/16 09:56:30;;;;;;;15.25;12.13;;;;;;;;;;4938518;28;94181;-74
2022/03/16 09:58:57;;;;;;;15.43;12.57;;;;;;;;;;4938995;28;92463;-75
2022/03/16 10:01:23;;;;;;;14.98;11.60;;;;;;;;;;4945229;28;92470;-72
2022/03/16 10:03:50;;;;;;;13.13;11.82;;;;;;;;;;4934290;28;92399;-73
2022/03/16 10:06:20;;;;;;;14.02;11.18;;;;;;;;;;4939198;28;92612;-72
2022/03/16 10:14:23;;;;;;;18.85;12.02;;;;;;;;;;4933955;28;94598;-76
2022/03/16 10:19:49;;;;;;;15.05;11.88;;;;;;;;;;4938848;28;92311;-74
2022/03/16 10:22:25;;;;;;;14.25;12.05;;;;;;;;;;4942563;28;93961;-74
2022/03/16 10:25:04;;;;;;;12.88;11.48;;;;;;;;;;4938199;28;95158;-73
2022/03/16 10:27:35;;;;;;;13.73;12.20;;;;;;;;;;4936124;28;93502;-74
2022/03/16 10:30:02;;;;;;;13.77;11.75;;;;;;;;;;4938138;28;94478;-73
2022/03/16 10:32:38;;;;;;;19.33;12.48;;;;;;;;;;4939254;28;91580;-75
2022/03/16 10:35:05;;;;;;;13.35;11.82;;;;;;;;;;4937833;28;92980;-74
2022/03/16 10:37:36;;;;;;;14.52;12.00;;;;;;;;;;4938565;28;93464;-75
2022/03/16 10:40:15;;;;;;;13.68;11.13;;;;;;;;;;4936996;28;94852;-74
2022/03/16 10:48:16;;;;;;;17.52;11.48;;;;;;;;;;4940069;28;93402;-74
2022/03/16 10:50:43;;;;;;;14.07;12.10;;;;;;;;;;4936277;28;93594;-69
2022/03/16 10:53:11;;;;;;;16.40;11.00;;;;;;;;;;4938134;28;92347;-72
2022/03/16 10:55:38;;;;;;;13.05;11.18;;;;;;;;;;4938108;28;93456;-71
2022/03/16 10:58:05;;;;;;;12.35;10.32;;;;;;;;;;4938291;28;93570;-73
2022/03/16 11:00:35;;;;;;;13.63;10.63;;;;;;;;;;4937131;28;92406;-73
2022/03/16 11:03:15;;;;;;;14.98;11.20;;;;;;;;;;4937407;28;93485;-72
2022/03/16 11:05:42;;;;;;;12.73;10.70;;;;;;;;;;4935882;28;97212;-72
2022/03/16 11:08:09;;;;;;;14.65;11.75;;;;;;;;;;4940971;28;93677;-72
2022/03/16 11:10:37;;;;;;;11.43;10.32;;;;;;;;;;4938172;28;93669;-78
2022/03/16 11:15:51;;;;;;;14.27;10.88;;;;;;;;;;4936072;28;93822;-73
2022/03/16 11:18:18;;;;;;;18.85;11.40;;;;;;;;;;4937342;28;94609;-73
2022/03/16 11:20:47;;;;;;;10.70;9.65;;;;;;;;;;4940014;28;93046;-73
2022/03/16 11:26:23;;;;;;;11.20;10.15;;;;;;;;;;4937795;28;93822;-76
2022/03/16 11:29:08;;;;;;;11.77;10.57;;;;;;;;;;4935777;28;92665;-75
2022/03/16 11:31:34;;;;;;;11.65;10.55;;;;;;;;;;4939789;28;94831;-76
2022/03/16 11:34:03;;;;;;;14.80;10.65;;;;;;;;;;4937458;28;92348;-74
2022/03/16 11:36:31;;;;;;;11.60;9.20;;;;;;;;;;4936995;28;93905;-71
2022/03/16 11:38:59;;;;;;;10.90;9.90;;;;;;;;;;4937784;28;94168;-72
2022/03/16 11:41:26;;;;;;;10.48;9.30;;;;;;;;;;4944345;28;92324;-75
2022/03/16 11:44:03;;;;;;;13.25;9.50;;;;;;;;;;4937978;28;93077;-71
2022/03/16 11:46:30;;;;;;;12.18;8.82;;;;;;;;;;4937829;28;93544;-73
2022/03/16 11:49:01;;;;;;;14.73;9.88;;;;;;;;;;4937447;28;91765;-72
2022/03/16 11:51:28;;;;;;;11.43;9.57;;;;;;;;;;4940530;28;93338;-73
2022/03/16 11:54:01;;;;;;;10.98;9.98;;;;;;;;;;4944575;28;93548;-73
2022/03/16 11:56:32;;;;;;;10.48;9.45;;;;;;;;;;4934600;28;94904;-73
2022/03/16 11:59:05;;;;;;;11.10;10.10;;;;;;;;;;4938050;28;94336;-74
2022/03/16 12:01:33;;;;;;;17.08;9.98;;;;;;;;;;4937373;28;92208;-72
2022/03/16 12:04:12;;;;;;;13.65;10.40;;;;;;;;;;4937227;28;94193;-74
2022/03/16 12:06:50;;;;;;;9.95;9.07;;;;;;;;;;4937466;28;93727;-77
2022/03/16 12:09:22;;;;;;;11.43;9.45;;;;;;;;;;4938127;28;92436;-71
2022/03/16 12:15:00;;;;;;;10.25;9.35;;;;;;;;;;4938637;28;92461;-73
2022/03/16 12:17:26;;;;;;;10.32;9.25;;;;;;;;;;4940129;28;92462;-74
2022/03/16 12:20:07;;;;;;;132.85;89.82;;;;;;;;;;4938106;28;92710;-74
2022/03/16 12:22:41;;;;;;;12.90;9.77;;;;;;;;;;4935649;28;94646;-73
2022/03/16 12:25:26;;;;;;;11.45;9.45;;;;;;;;;;4953024;28;95352;-75
2022/03/16 12:30:47;;;;;;;13.95;9.68;;;;;;;;;;4938368;28;92305;-76
2022/03/16 12:33:22;;;;;;;11.57;10.13;;;;;;;;;;4938466;28;92218;-74
2022/03/16 12:36:03;;;;;;;11.88;10.40;;;;;;;;;;4936475;28;93202;-78
2022/03/16 12:38:34;;;;;;;11.55;10.02;;;;;;;;;;4937230;28;92131;-74
2022/03/16 12:43:46;;;;;;;11.93;10.63;;;;;;;;;;4937171;28;92186;-70
2022/03/16 12:46:19;;;;;;;11.98;10.77;;;;;;;;;;4937100;28;92722;-72
2022/03/16 12:48:51;;;;;;;12.70;10.57;;;;;;;;;;4934909;28;96459;-72
2022/03/16 12:51:35;;;;;;;11.25;10.15;;;;;;;;;;4936970;28;93654;-73
2022/03/16 12:54:02;;;;;;;14.13;11.68;;;;;;;;;;4935840;28;96188;-72
2022/03/16 12:56:29;;;;;;;14.07;10.50;;;;;;;;;;4936736;28;93597;-72
2022/03/16 12:58:55;;;;;;;14.35;11.18;;;;;;;;;;4936953;28;92357;-73
2022/03/16 13:01:22;;;;;;;11.98;10.77;;;;;;;;;;4940017;28;93726;-74
2022/03/16 13:04:16;;;;;;;15.63;11.82;;;;;;;;;;4936998;28;92209;-71
2022/03/16 13:06:43;;;;;;;13.90;11.32;;;;;;;;;;4937438;28;93805;-71
2022/03/16 13:09:10;;;;;;;14.18;11.60;;;;;;;;;;4936754;28;93377;-72
2022/03/16 13:11:39;;;;;;;14.75;11.40;;;;;;;;;;4936753;28;92302;-72
2022/03/16 13:14:13;;;;;;;13.27;11.77;;;;;;;;;;4935218;28;94703;-71
2022/03/16 13:16:55;;;;;;;13.02;11.82;;;;;;;;;;4936366;28;92978;-70
2022/03/16 13:19:26;;;;;;;12.55;11.43;;;;;;;;;;4935908;28;92305;-72
2022/03/16 13:22:02;;;;;;;13.50;12.10;;;;;;;;;;4933205;28;94260;-71
2022/03/16 13:24:32;;;;;;;17.95;11.68;;;;;;;;;;4920175;28;92842;-71
2022/03/16 13:27:00;;;;;;;13.65;12.05;;;;;;;;;;4916845;28;94618;-70
2022/03/16 13:29:28;;;;;;;14.55;11.75;;;;;;;;;;4916925;28;93706;-71
2022/03/16 13:31:56;;;;;;;13.15;11.95;;;;;;;;;;4917247;28;91649;-72
2022/03/16 13:34:23;;;;;;;14.63;11.98;;;;;;;;;;4919520;28;92360;-72
2022/03/16 13:36:53;;;;;;;16.02;11.95;;;;;;;;;;4916888;28;95311;-72
2022/03/16 13:39:28;;;;;;;13.90;11.73;;;;;;;;;;4918785;28;94649;-74
2022/03/16 13:42:05;;;;;;;13.27;11.90;;;;;;;;;;4920235;28;96289;-73
2022/03/16 13:44:37;;;;;;;12.77;11.48;;;;;;;;;;4920174;28;94272;-72
2022/03/16 13:47:05;;;;;;;12.63;11.43;;;;;;;;;;4923320;28;92321;-72
2022/03/16 13:49:37;;;;;;;13.00;11.70;;;;;;;;;;4919743;28;93727;-71
2022/03/16 13:52:08;;;;;;;14.70;12.07;;;;;;;;;;4919785;28;92272;-72
2022/03/16 13:54:35;;;;;;;13.70;11.83;;;;;;;;;;4920099;28;93393;-72
2022/03/16 13:57:05;;;;;;;14.25;11.73;;;;;;;;;;4920314;28;94257;-71
2022/03/16 13:59:32;;;;;;;13.82;12.43;;;;;;;;;;4920117;28;92277;-72
2022/03/16 14:02:22;;;;;;;13.50;12.10;;;;;;;;;;4927922;28;93842;-71
2022/03/16 14:04:57;;;;;;;13.57;12.10;;;;;;;;;;4937161;28;95335;-73
2022/03/16 14:07:37;;;;;;;20.42;11.98;;;;;;;;;;4939034;28;92306;-71
2022/03/16 14:10:05;;;;;;;13.88;12.05;;;;;;;;;;4942333;28;93742;-72
2022/03/16 14:12:32;;;;;;;15.32;12.15;;;;;;;;;;4938597;28;92309;-72
2022/03/16 14:15:00;;;;;;;14.27;11.90;;;;;;;;;;4941596;28;93781;-73
2022/03/16 14:17:46;;;;;;;14.32;12.05;;;;;;;;;;4938693;28;93731;-71
2022/03/16 14:20:19;;;;;;;14.40;11.98;;;;;;;;;;4937347;28;92306;-72
2022/03/16 14:22:52;;;;;;;13.88;12.30;;;;;;;;;;4938956;28;92774;-72
2022/03/16 14:25:29;;;;;;;13.45;11.80;;;;;;;;;;4941851;28;94478;-72
2022/03/16 14:27:57;;;;;;;13.73;11.20;;;;;;;;;;4938607;28;92436;-72
2022/03/16 14:30:28;;;;;;;12.48;11.27;;;;;;;;;;4936825;28;94682;-71
2022/03/16 14:33:01;;;;;;;14.55;11.75;;;;;;;;;;4941000;28;93667;-72
2022/03/16 14:35:29;;;;;;;12.60;11.05;;;;;;;;;;4938936;28;93033;-73
2022/03/16 14:37:57;;;;;;;14.95;12.10;;;;;;;;;;4937892;28;93711;-73
2022/03/16 14:40:24;;;;;;;13.38;11.48;;;;;;;;;;4938215;28;92258;-72
2022/03/16 14:43:36;;;;;;;15.90;12.05;;;;;;;;;;5021305;27;1369482;-70
2022/03/16 14:46:02;;;;;;;13.55;11.95;;;;;;;;;;5048090;27;89718;-71
2022/03/16 14:48:28;;;;;;;13.63;11.27;;;;;;;;;;5055926;27;89757;-72
2022/03/16 14:50:55;;;;;;;12.75;11.45;;;;;;;;;;5055174;27;89146;-71
2022/03/16 14:53:22;;;;;;;15.70;12.20;;;;;;;;;;5055490;27;91211;-72
2022/03/16 14:55:48;;;;;;;16.60;11.45;;;;;;;;;;5053399;27;89718;-72